Arctic Village, AK

12:32 PM AKDT on August 21, 2014 (GMT -0800)
Arctic Village | Change Station
CLOSE
Current Station
Airport
Location: Arctic Village,
Elevation: 2090 ft
Nearby Weather Stations

Elev 2090 ft 68.11 °N, 145.58 °W | Updated 16 minutes ago

Scattered Clouds
Scattered Clouds
52 °F
Feels Like 52 °F
N
4
Wind Variable Wind from ESE

Today
High -- | Low -- °F
--% Chance of Precip.
Yesterday
High -- | Low -- °F
Precip. -- in
5:26 AM 10:01 PM
Waning Crescent, 12% visible
Pressure 30.08 in
Visibility 10.0 miles
Clouds Scattered Clouds 2300 ft
Dew Point 50 °F
Humidity 94%
Rainfall 0.37 in
Snow Depth Not available.
UV 3 out of 12
Pollen Not available.
Air Quality Not available.
Flu Activity Not available.
METAR PARC 212016Z AUTO 12003KT 10SM SCT023 11/10 A3008 RMK AO1

More Conditions Fewer Conditions

Pressure 30.08 in
Visibility 10.0 miles
Clouds Scattered Clouds 2300 ft
Dew Point 50 °F
Humidity 94%
Rainfall 0.37 in
Snow Depth Not available.
UV 3 out of 12
Pollen Not available.
Air Quality Not available.
Flu Activity Not available.
METAR PARC 212016Z AUTO 12003KT 10SM SCT023 11/10 A3008 RMK AO1

More Conditions Fewer Conditions

10-Day Weather Forecast

Almanac

Astronomy

Aug. 21, 2014 Rise Set
Actual Time 5:26 AM AKDT 10:01 PM AKDT
Civil Twilight 4:06 AM AKDT 11:19 PM AKDT
Nautical Twilight Sun does not rise 1:12 AM AKDT
Astronomical Twilight Sun does not rise Sun does not rise
Moon 1:03 AM AKDT 8:22 PM AKDT
Length of Visible Light 19h 13m
Length of Day
16h 34m
Tomorrow will be 8m 26s shorter.
Waning Crescent, 12% of the Moon is Illuminated
Today
Waning Crescent
Aug 25
New
Sep 2
First Quarter
Sep 8
Full
Sep 15
Last Quarter

Today's Extremes

State Highs State Lows

Community

WunderPhotos

Upload Photos

1,746,018 photos uploaded!

WunderBlogs® & News

Nearby

Snow Depth

Station Depth Elevation
Atigun Pass 0 in 4800 ft
Imnaviat Creek 0 in 3050 ft
Fort Yukon 2 in 430 ft
Coldfoot 1 in 1040 ft
Gobblers Knob 0 in 2030 ft

Earthquake Activity

City Distance Mag. Time & Date
No recent earthquake activity has been reported nearby.
Minimum magnitude displayed is 2.5.

Coastal Water Temperatures

Place Temperature
No Stations Reporting

Nearby Weather Stations